createdAt,value
2023-04-29T00:01:05.886Z,6.72
2023-04-29T00:03:32.922Z,2.42
2023-04-29T00:06:00.446Z,4.95
2023-04-29T00:08:27.992Z,4.32
2023-04-29T00:10:54.674Z,4.80
2023-04-29T00:13:21.441Z,5.60
2023-04-29T00:15:48.315Z,2.90
2023-04-29T00:18:15.082Z,2.92
2023-04-29T00:20:43.173Z,2.83
2023-04-29T00:23:09.874Z,9.32
2023-04-29T00:25:38.333Z,3.95
2023-04-29T00:28:06.197Z,4.95
2023-04-29T00:30:34.631Z,4.35
2023-04-29T00:33:01.830Z,4.18
2023-04-29T00:35:28.614Z,6.50
2023-04-29T00:37:55.385Z,5.78
2023-04-29T00:40:22.200Z,14.18
2023-04-29T00:42:48.959Z,4.18
2023-04-29T00:45:16.217Z,6.70
2023-04-29T00:47:43.042Z,5.50
2023-04-29T00:50:10.123Z,6.68
2023-04-29T00:52:38.983Z,4.55
2023-04-29T00:55:07.233Z,4.85
2023-04-29T00:57:34.541Z,6.00
2023-04-29T01:00:01.585Z,3.88
2023-04-29T01:02:29.534Z,3.42
2023-04-29T01:04:56.531Z,3.40
2023-04-29T01:08:07.050Z,6.07
2023-04-29T01:10:41.700Z,3.35
2023-04-29T01:13:35.158Z,5.82
2023-04-29T01:16:18.675Z,4.30
2023-04-29T01:18:54.076Z,5.78
2023-04-29T01:21:21.275Z,5.93
2023-04-29T01:23:51.842Z,8.45
2023-04-29T01:26:19.057Z,5.75
2023-04-29T01:28:59.358Z,8.48
2023-04-29T01:31:45.153Z,4.13
2023-04-29T01:34:18.354Z,8.30
2023-04-29T01:37:04.861Z,10.95
2023-04-29T01:40:31.683Z,4.47
2023-04-29T01:43:04.280Z,4.32
2023-04-29T01:45:34.025Z,6.22
2023-04-29T01:48:01.850Z,3.95
2023-04-29T01:50:28.793Z,3.53
2023-04-29T01:52:55.414Z,3.38
2023-04-29T01:55:22.446Z,6.03
2023-04-29T01:57:49.140Z,5.63
2023-04-29T02:00:16.150Z,4.13
2023-04-29T02:02:42.960Z,5.55
2023-04-29T02:05:09.958Z,4.47
2023-04-29T02:07:36.730Z,3.80
2023-04-29T02:10:03.573Z,4.22
2023-04-29T02:12:30.203Z,3.55
2023-04-29T02:14:56.995Z,4.13
2023-04-29T02:17:23.799Z,9.27
2023-04-29T02:19:50.934Z,3.10
2023-04-29T02:22:17.883Z,3.25
2023-04-29T02:24:44.524Z,5.22
2023-04-29T02:27:11.194Z,3.05
2023-04-29T02:29:37.839Z,3.60
2023-04-29T02:32:05.051Z,3.05
2023-04-29T02:34:32.074Z,3.58
2023-04-29T02:36:58.780Z,2.88
2023-04-29T02:39:25.391Z,2.63
2023-04-29T02:41:56.140Z,4.25
2023-04-29T02:44:22.876Z,3.53
2023-04-29T02:46:49.590Z,6.50
2023-04-29T02:49:16.331Z,6.50
2023-04-29T02:51:43.080Z,3.35
2023-04-29T02:54:09.852Z,6.93
2023-04-29T02:56:36.554Z,2.83
2023-04-29T02:59:03.283Z,5.78
2023-04-29T03:01:30.070Z,2.97
2023-04-29T03:03:57.635Z,6.60
2023-04-29T03:06:24.443Z,4.18
2023-04-29T03:08:51.350Z,4.32
2023-04-29T03:11:18.091Z,4.38
2023-04-29T03:13:45.968Z,7.28
2023-04-29T03:16:17.015Z,7.82
2023-04-29T03:18:45.078Z,4.43
2023-04-29T03:21:11.784Z,7.43
2023-04-29T03:23:41.164Z,4.53
2023-04-29T03:26:08.005Z,5.00
2023-04-29T03:28:34.743Z,4.18
2023-04-29T03:31:01.908Z,9.55
2023-04-29T03:33:28.811Z,7.38
2023-04-29T03:35:55.778Z,7.70
2023-04-29T03:38:22.995Z,8.15
2023-04-29T03:40:49.904Z,6.68
2023-04-29T03:43:16.629Z,6.88
2023-04-29T03:45:43.357Z,7.60
2023-04-29T03:48:10.000Z,10.27
2023-04-29T03:50:37.303Z,7.07
2023-04-29T03:53:04.125Z,7.53
2023-04-29T03:55:30.841Z,7.03
2023-04-29T03:57:57.643Z,11.77
2023-04-29T04:00:26.426Z,8.35
2023-04-29T04:02:53.371Z,10.75
2023-04-29T04:05:20.998Z,9.40
2023-04-29T04:07:47.826Z,7.97
2023-04-29T04:10:14.724Z,8.02
2023-04-29T04:12:43.942Z,12.27
2023-04-29T04:15:11.002Z,6.70
2023-04-29T04:17:37.746Z,13.73
2023-04-29T04:20:05.326Z,9.68
2023-04-29T04:22:32.013Z,11.20
2023-04-29T04:24:58.656Z,7.72
2023-04-29T04:27:25.286Z,8.60
2023-04-29T04:29:55.454Z,8.00
2023-04-29T04:32:23.658Z,8.27
2023-04-29T04:34:51.005Z,6.18
2023-04-29T04:37:17.697Z,10.02
2023-04-29T04:39:44.452Z,8.15
2023-04-29T04:42:11.220Z,6.50
2023-04-29T04:44:38.192Z,9.13
2023-04-29T04:47:06.163Z,11.30
2023-04-29T04:49:32.826Z,6.75
2023-04-29T04:51:59.521Z,6.88
2023-04-29T04:54:26.345Z,9.40
2023-04-29T04:56:53.118Z,9.93
2023-04-29T04:59:19.818Z,7.20
2023-04-29T05:01:46.631Z,5.70
2023-04-29T05:04:13.400Z,9.13
2023-04-29T05:06:40.066Z,9.30
2023-04-29T05:09:06.947Z,5.32
2023-04-29T05:11:33.611Z,5.65
2023-04-29T05:14:00.800Z,5.32
2023-04-29T05:16:27.554Z,6.07
2023-04-29T05:18:54.269Z,4.82
2023-04-29T05:21:20.966Z,4.93
2023-04-29T05:23:47.737Z,3.90
2023-04-29T05:26:14.403Z,3.78
2023-04-29T05:28:41.273Z,7.07
2023-04-29T05:31:07.977Z,7.22
2023-04-29T05:33:34.759Z,5.88
2023-04-29T05:36:01.611Z,3.33
2023-04-29T05:38:29.128Z,6.75
2023-04-29T05:40:56.589Z,4.28
2023-04-29T05:43:23.411Z,4.93
2023-04-29T05:45:50.193Z,5.68
2023-04-29T05:48:17.017Z,3.13
2023-04-29T05:50:44.263Z,4.13
2023-04-29T05:53:11.290Z,3.70
2023-04-29T05:55:38.016Z,7.70
2023-04-29T05:58:04.644Z,3.90
2023-04-29T06:00:31.837Z,4.72
2023-04-29T06:02:59.463Z,5.57
2023-04-29T06:05:27.029Z,3.55
2023-04-29T06:07:54.370Z,6.10
2023-04-29T06:10:21.014Z,4.00
2023-04-29T06:12:50.823Z,10.07
2023-04-29T06:15:17.741Z,4.10
2023-04-29T06:17:45.092Z,6.35
2023-04-29T06:20:12.366Z,6.38
2023-04-29T06:22:39.090Z,4.50
2023-04-29T06:25:06.068Z,3.65
2023-04-29T06:27:32.893Z,4.15
2023-04-29T06:29:59.616Z,3.88
2023-04-29T06:32:26.393Z,3.25
2023-04-29T06:34:53.090Z,2.58
2023-04-29T06:37:19.766Z,4.85
2023-04-29T06:39:46.578Z,7.13
2023-04-29T06:42:13.339Z,2.65
2023-04-29T06:44:40.048Z,2.53
2023-04-29T06:47:06.905Z,3.00
2023-04-29T06:49:34.187Z,3.00
2023-04-29T06:52:02.196Z,4.97
2023-04-29T06:54:29.168Z,4.30
2023-04-29T06:56:55.935Z,3.92
2023-04-29T06:59:22.770Z,2.75
2023-04-29T07:01:50.005Z,3.90
2023-04-29T07:04:16.749Z,2.72
2023-04-29T07:06:46.883Z,4.53
2023-04-29T07:09:14.344Z,8.35
2023-04-29T07:11:41.268Z,2.45
2023-04-29T07:14:08.310Z,4.35
2023-04-29T07:16:35.091Z,6.20
2023-04-29T07:19:01.754Z,5.78
2023-04-29T07:21:28.522Z,5.60
2023-04-29T07:23:55.634Z,4.55
2023-04-29T07:26:22.596Z,6.30
2023-04-29T07:28:50.029Z,3.03
2023-04-29T07:31:16.865Z,3.78
2023-04-29T07:33:45.720Z,3.55
2023-04-29T07:36:12.445Z,4.45
2023-04-29T07:38:39.156Z,2.83
2023-04-29T07:41:06.014Z,2.58
2023-04-29T07:43:32.735Z,3.90
2023-04-29T07:45:59.424Z,12.65
2023-04-29T07:48:26.353Z,9.63
2023-04-29T07:50:53.146Z,3.38
2023-04-29T07:53:19.864Z,3.80
2023-04-29T07:55:47.405Z,7.10
2023-04-29T07:58:14.460Z,7.03
2023-04-29T08:00:41.259Z,4.10
2023-04-29T08:03:08.126Z,5.53
2023-04-29T08:05:35.275Z,5.63
2023-04-29T08:08:02.278Z,4.05
2023-04-29T08:10:29.268Z,4.60
2023-04-29T08:12:56.152Z,3.13
2023-04-29T08:15:22.949Z,2.97
2023-04-29T08:17:49.719Z,3.45
2023-04-29T08:20:16.782Z,4.63
2023-04-29T08:22:43.600Z,3.28
2023-04-29T08:25:10.705Z,3.13
2023-04-29T08:27:37.508Z,7.60
2023-04-29T08:30:04.687Z,5.68
2023-04-29T08:32:32.188Z,6.20
2023-04-29T08:34:58.996Z,2.75
2023-04-29T08:37:25.662Z,2.80
2023-04-29T08:39:52.293Z,4.95
2023-04-29T08:42:29.777Z,2.75
2023-04-29T08:44:58.596Z,5.88
2023-04-29T08:47:26.340Z,3.97
2023-04-29T08:49:54.247Z,6.05
2023-04-29T08:52:21.101Z,2.55
2023-04-29T08:54:47.857Z,4.47
2023-04-29T08:57:14.553Z,3.30
2023-04-29T08:59:42.343Z,7.32
2023-04-29T09:02:13.761Z,4.70
2023-04-29T09:05:06.307Z,17.23
2023-04-29T09:10:00.565Z,4.82
2023-04-29T09:12:27.304Z,4.15
2023-04-29T09:14:54.145Z,5.15
2023-04-29T09:17:47.733Z,7.43
2023-04-29T09:20:20.714Z,7.20
2023-04-29T09:22:51.311Z,2.63
2023-04-29T09:25:18.565Z,7.35
2023-04-29T09:27:45.322Z,3.03
2023-04-29T09:30:16.599Z,5.10
2023-04-29T09:32:45.134Z,4.87
2023-04-29T09:35:25.329Z,5.40
2023-04-29T09:38:08.739Z,5.13
2023-04-29T09:40:46.568Z,3.25
2023-04-29T09:43:23.936Z,3.72
2023-04-29T09:45:50.722Z,6.05
2023-04-29T09:48:17.514Z,5.97
2023-04-29T09:50:58.622Z,8.75
2023-04-29T09:53:29.968Z,11.18
2023-04-29T09:55:59.848Z,5.78
2023-04-29T09:58:37.197Z,4.32
2023-04-29T10:01:04.905Z,4.72
2023-04-29T10:03:39.515Z,3.25
2023-04-29T10:06:07.551Z,6.25
2023-04-29T10:08:35.435Z,4.75
2023-04-29T10:11:05.811Z,3.42
2023-04-29T10:13:34.814Z,6.00
2023-04-29T10:16:20.120Z,6.10
2023-04-29T10:18:52.851Z,3.88
2023-04-29T10:21:24.779Z,3.40
2023-04-29T10:23:53.876Z,4.78
2023-04-29T10:26:22.401Z,5.05
2023-04-29T10:28:51.594Z,6.35
2023-04-29T10:31:19.962Z,5.50
2023-04-29T10:33:47.794Z,7.60
2023-04-29T10:36:15.396Z,11.75
2023-04-29T10:38:54.573Z,7.35
2023-04-29T10:41:25.492Z,22.23
2023-04-29T10:43:53.130Z,5.55
2023-04-29T10:46:22.277Z,11.13
2023-04-29T10:48:56.369Z,9.07
2023-04-29T10:51:32.973Z,7.53
2023-04-29T10:54:09.577Z,5.15
2023-04-29T10:56:41.997Z,4.97
2023-04-29T10:59:16.384Z,6.80
2023-04-29T11:01:46.153Z,4.50
2023-04-29T11:04:13.520Z,14.65
2023-04-29T11:06:42.915Z,4.88
2023-04-29T11:09:20.571Z,5.30
2023-04-29T11:11:58.290Z,5.85
2023-04-29T11:14:30.785Z,4.88
2023-04-29T11:16:59.845Z,7.78
2023-04-29T11:19:51.138Z,3.60
2023-04-29T11:22:18.067Z,5.95
2023-04-29T11:24:55.291Z,5.25
2023-04-29T11:27:27.373Z,5.07
2023-04-29T11:29:58.169Z,5.30
2023-04-29T11:32:29.781Z,3.50
2023-04-29T11:35:08.634Z,5.55
2023-04-29T11:37:35.648Z,11.05
2023-04-29T11:40:02.493Z,11.07
2023-04-29T11:42:29.488Z,11.35
2023-04-29T11:45:00.409Z,13.38
2023-04-29T11:47:31.372Z,11.23
2023-04-29T11:50:10.336Z,10.90
2023-04-29T11:52:41.683Z,11.77
2023-04-29T11:55:12.422Z,13.88
2023-04-29T11:57:40.152Z,15.23
2023-04-29T12:00:14.111Z,10.82
2023-04-29T12:02:46.179Z,9.52
2023-04-29T12:07:40.981Z,11.77
2023-04-29T12:10:11.923Z,13.50
2023-04-29T12:12:41.270Z,17.83
2023-04-29T12:15:10.085Z,12.15
2023-04-29T12:17:37.477Z,13.85
2023-04-29T12:20:04.959Z,17.58
2023-04-29T12:22:32.318Z,12.85
2023-04-29T12:24:59.081Z,14.43
2023-04-29T12:27:26.705Z,12.63
2023-04-29T12:29:53.538Z,19.50
2023-04-29T12:32:24.572Z,13.75
2023-04-29T12:34:53.093Z,12.88
2023-04-29T12:37:22.391Z,18.92
2023-04-29T12:39:50.745Z,16.02
2023-04-29T12:42:17.935Z,15.05
2023-04-29T12:44:48.711Z,13.90
2023-04-29T12:47:16.820Z,14.25
2023-04-29T12:49:45.939Z,13.10
2023-04-29T12:52:13.361Z,14.40
2023-04-29T12:54:50.517Z,18.90
2023-04-29T12:57:17.629Z,17.58
2023-04-29T12:59:45.356Z,14.63
2023-04-29T13:02:12.555Z,17.38
2023-04-29T13:04:40.082Z,14.73
2023-04-29T13:07:07.247Z,13.15
2023-04-29T13:09:34.816Z,16.38
2023-04-29T13:12:02.789Z,15.98
2023-04-29T13:14:29.422Z,13.80
2023-04-29T13:16:56.301Z,15.32
2023-04-29T13:21:53.089Z,14.68
2023-04-29T13:24:20.829Z,24.70
2023-04-29T13:26:51.724Z,13.52
2023-04-29T13:29:19.140Z,11.45
2023-04-29T13:31:45.885Z,16.08
2023-04-29T13:34:12.756Z,16.13
2023-04-29T13:36:39.581Z,15.10
2023-04-29T13:39:06.340Z,16.17
2023-04-29T13:41:35.423Z,15.45
2023-04-29T13:44:03.057Z,14.07
2023-04-29T13:46:32.562Z,17.85
2023-04-29T13:54:48.015Z,10.63
2023-04-29T13:59:40.136Z,19.65
2023-04-29T14:04:32.196Z,18.45
2023-04-29T14:06:59.005Z,16.58
2023-04-29T14:09:26.363Z,23.10
2023-04-29T14:11:54.047Z,18.17
2023-04-29T14:14:21.044Z,21.30
2023-04-29T14:16:47.797Z,12.40
2023-04-29T14:19:14.573Z,14.15
2023-04-29T14:21:41.523Z,11.95
2023-04-29T14:24:08.215Z,14.27
2023-04-29T14:26:36.666Z,10.30
2023-04-29T14:29:03.455Z,12.07
2023-04-29T14:31:34.779Z,14.68
2023-04-29T14:34:01.738Z,16.83
2023-04-29T14:36:28.528Z,13.45
2023-04-29T14:38:55.280Z,11.55
2023-04-29T14:41:22.040Z,13.40
2023-04-29T14:43:48.845Z,20.25
2023-04-29T14:46:15.751Z,13.63
2023-04-29T14:48:42.669Z,17.98
2023-04-29T14:51:09.387Z,12.70
2023-04-29T14:53:36.085Z,13.30
2023-04-29T14:56:03.623Z,14.30
2023-04-29T14:58:30.283Z,12.70
2023-04-29T15:00:57.018Z,14.02
2023-04-29T15:03:23.750Z,11.95
2023-04-29T15:05:51.533Z,14.90
2023-04-29T15:08:19.184Z,10.48
2023-04-29T15:10:47.473Z,14.15
2023-04-29T15:13:14.582Z,10.75
2023-04-29T15:15:41.449Z,15.40
2023-04-29T15:18:08.900Z,11.32
2023-04-29T15:20:37.161Z,10.55
2023-04-29T15:23:05.311Z,12.40
2023-04-29T15:25:34.623Z,15.25
2023-04-29T15:28:03.954Z,10.55
2023-04-29T15:30:31.007Z,12.57
2023-04-29T15:32:58.236Z,13.70
2023-04-29T15:35:24.962Z,10.88
2023-04-29T15:37:51.644Z,11.18
2023-04-29T15:40:18.489Z,12.73
2023-04-29T15:42:45.318Z,12.70
2023-04-29T15:45:12.200Z,14.07
2023-04-29T15:47:39.230Z,11.50
2023-04-29T15:50:06.925Z,14.07
2023-04-29T15:52:33.706Z,10.98
2023-04-29T15:55:00.363Z,9.73
2023-04-29T15:57:27.184Z,9.70
2023-04-29T15:59:54.237Z,8.02
2023-04-29T16:02:21.381Z,10.13
2023-04-29T16:04:48.284Z,10.00
2023-04-29T16:07:14.938Z,8.45
2023-04-29T16:09:41.849Z,8.25
2023-04-29T16:12:11.574Z,8.07
2023-04-29T16:14:38.486Z,10.70
2023-04-29T16:17:05.935Z,8.27
2023-04-29T16:19:35.126Z,7.97
2023-04-29T16:22:03.334Z,9.00
2023-04-29T16:24:30.009Z,8.40
2023-04-29T16:26:57.250Z,7.65
2023-04-29T16:29:23.969Z,8.23
2023-04-29T16:31:50.927Z,7.53
2023-04-29T16:34:17.690Z,9.65
2023-04-29T16:36:44.347Z,6.82
2023-04-29T16:39:11.001Z,7.55
2023-04-29T16:41:37.764Z,6.97
2023-04-29T16:44:04.606Z,7.05
2023-04-29T16:46:32.472Z,26.40
2023-04-29T16:48:59.366Z,12.27
2023-04-29T16:51:26.248Z,7.32
2023-04-29T16:53:53.330Z,5.82
2023-04-29T16:56:21.700Z,6.15
2023-04-29T16:58:48.617Z,6.88
2023-04-29T17:01:15.844Z,6.38
2023-04-29T17:03:42.571Z,8.02
2023-04-29T17:06:09.327Z,6.45
2023-04-29T17:08:36.204Z,6.75
2023-04-29T17:11:04.864Z,8.30
2023-04-29T17:13:31.945Z,10.10
2023-04-29T17:15:58.873Z,6.05
2023-04-29T17:18:25.980Z,7.10
2023-04-29T17:20:52.690Z,7.75
2023-04-29T17:23:19.394Z,10.63
2023-04-29T17:25:46.828Z,7.55
2023-04-29T17:28:13.529Z,8.30
2023-04-29T17:30:40.245Z,7.25
2023-04-29T17:33:07.064Z,7.13
2023-04-29T17:35:34.215Z,7.85
2023-04-29T17:38:01.093Z,11.00
2023-04-29T17:40:27.859Z,8.88
2023-04-29T17:42:54.511Z,9.93
2023-04-29T17:45:21.167Z,7.57
2023-04-29T17:47:48.349Z,6.78
2023-04-29T17:50:15.281Z,9.27
2023-04-29T17:52:42.426Z,9.77
2023-04-29T17:55:09.735Z,7.45
2023-04-29T17:57:38.048Z,12.10
2023-04-29T18:00:08.474Z,9.20
2023-04-29T18:02:35.299Z,7.10
2023-04-29T18:05:03.354Z,8.90
2023-04-29T18:07:30.086Z,8.52
2023-04-29T18:09:57.734Z,9.88
2023-04-29T18:12:25.014Z,7.68
2023-04-29T18:14:51.957Z,8.57
2023-04-29T18:17:19.078Z,10.65
2023-04-29T18:19:51.605Z,9.98
2023-04-29T18:22:18.299Z,9.30
2023-04-29T18:24:45.035Z,10.93
2023-04-29T18:27:11.738Z,12.63
2023-04-29T18:29:38.359Z,17.00
2023-04-29T18:32:07.854Z,13.00
2023-04-29T18:34:34.944Z,15.30
2023-04-29T18:37:01.722Z,10.63
2023-04-29T18:39:28.704Z,10.73
2023-04-29T18:41:55.954Z,9.40
2023-04-29T18:44:22.681Z,16.80
2023-04-29T18:46:49.555Z,9.88
2023-04-29T18:49:17.715Z,10.35
2023-04-29T18:51:47.946Z,10.27
2023-04-29T18:54:17.196Z,10.05
2023-04-29T18:56:48.802Z,11.02
2023-04-29T18:59:19.291Z,10.38
2023-04-29T19:01:47.156Z,9.48
2023-04-29T19:04:14.073Z,9.73
2023-04-29T19:06:41.646Z,9.82
2023-04-29T19:09:08.614Z,15.25
2023-04-29T19:11:35.439Z,10.30
2023-04-29T19:14:03.899Z,9.70
2023-04-29T19:16:30.540Z,10.48
2023-04-29T19:18:57.455Z,9.00
2023-04-29T19:21:24.157Z,10.48
2023-04-29T19:23:50.899Z,10.70
2023-04-29T19:26:17.590Z,9.65
2023-04-29T19:28:44.274Z,11.98
2023-04-29T19:31:11.845Z,11.45
2023-04-29T19:33:38.709Z,12.57
2023-04-29T19:36:05.434Z,10.73
2023-04-29T19:38:32.156Z,11.10
2023-04-29T19:41:00.214Z,13.55
2023-04-29T19:43:26.888Z,12.15
2023-04-29T19:45:53.583Z,15.40
2023-04-29T19:48:20.327Z,12.20
2023-04-29T19:50:46.962Z,13.15
2023-04-29T19:53:14.061Z,17.20
2023-04-29T19:55:40.939Z,12.40
2023-04-29T19:58:07.705Z,12.13
2023-04-29T20:00:34.751Z,13.85
2023-04-29T20:03:01.766Z,14.52
2023-04-29T20:05:28.856Z,12.65
2023-04-29T20:07:55.800Z,14.65
2023-04-29T20:10:23.049Z,18.27
2023-04-29T20:12:49.933Z,14.13
2023-04-29T20:15:16.836Z,14.27
2023-04-29T20:17:43.881Z,17.25
2023-04-29T20:20:10.990Z,17.50
2023-04-29T20:22:38.399Z,14.02
2023-04-29T20:25:05.560Z,14.70
2023-04-29T20:27:32.354Z,14.90
2023-04-29T20:29:59.038Z,13.68
2023-04-29T20:32:26.219Z,14.25
2023-04-29T20:34:53.958Z,14.63
2023-04-29T20:37:21.014Z,13.05
2023-04-29T20:39:47.964Z,15.88
2023-04-29T20:42:14.783Z,15.18
2023-04-29T20:44:41.560Z,16.10
2023-04-29T20:47:08.584Z,15.98
2023-04-29T20:49:35.273Z,14.93
2023-04-29T20:52:02.058Z,14.32
2023-04-29T20:54:28.746Z,14.77
2023-04-29T20:56:55.429Z,13.32
2023-04-29T20:59:22.118Z,18.63
2023-04-29T21:01:48.893Z,13.90
2023-04-29T21:04:15.683Z,15.05
2023-04-29T21:06:42.474Z,18.27
2023-04-29T21:09:09.218Z,15.60
2023-04-29T21:11:35.955Z,13.20
2023-04-29T21:14:02.595Z,15.30
2023-04-29T21:16:29.272Z,15.57
2023-04-29T21:18:55.968Z,16.08
2023-04-29T21:21:23.278Z,18.95
2023-04-29T21:23:49.917Z,15.48
2023-04-29T21:26:16.625Z,13.82
2023-04-29T21:28:43.378Z,15.73
2023-04-29T21:31:15.915Z,15.45
2023-04-29T21:33:46.169Z,15.30
2023-04-29T21:36:13.576Z,14.95
2023-04-29T21:38:42.636Z,13.35
2023-04-29T21:41:28.302Z,17.42
2023-04-29T21:43:58.595Z,15.45
2023-04-29T21:46:28.171Z,17.25
2023-04-29T21:48:57.493Z,15.68
2023-04-29T21:51:24.637Z,20.17
2023-04-29T21:53:51.520Z,18.23
2023-04-29T21:56:18.457Z,15.68
2023-04-29T21:58:45.637Z,16.02
2023-04-29T22:01:40.453Z,15.25
2023-04-29T22:04:07.541Z,21.40
2023-04-29T22:06:34.660Z,15.07
2023-04-29T22:09:01.777Z,16.55
2023-04-29T22:11:28.901Z,18.30
2023-04-29T22:13:55.676Z,17.38
2023-04-29T22:16:23.520Z,16.35
2023-04-29T22:18:51.128Z,15.43
2023-04-29T22:21:18.569Z,17.42
2023-04-29T22:23:45.730Z,17.08
2023-04-29T22:26:12.420Z,18.05
2023-04-29T22:28:39.288Z,14.82
2023-04-29T22:31:06.467Z,17.85
2023-04-29T22:33:34.680Z,17.27
2023-04-29T22:36:01.961Z,16.35
2023-04-29T22:38:29.449Z,17.77
2023-04-29T22:40:56.366Z,18.92
2023-04-29T22:43:23.215Z,16.67
2023-04-29T22:45:56.770Z,14.98
2023-04-29T22:48:26.659Z,14.45
2023-04-29T22:50:55.815Z,17.92
2023-04-29T22:53:23.038Z,14.60
2023-04-29T22:55:55.814Z,16.35
2023-04-29T22:58:26.509Z,17.30
2023-04-29T23:00:55.949Z,15.68
2023-04-29T23:03:22.930Z,13.30
2023-04-29T23:05:49.717Z,14.27
2023-04-29T23:08:16.381Z,11.77
2023-04-29T23:10:50.755Z,13.52
2023-04-29T23:13:17.816Z,12.40
2023-04-29T23:15:45.232Z,12.35
2023-04-29T23:18:12.099Z,10.25
2023-04-29T23:20:38.916Z,11.57
2023-04-29T23:23:05.898Z,12.57
2023-04-29T23:25:32.570Z,10.85
2023-04-29T23:27:59.304Z,9.15
2023-04-29T23:30:26.156Z,10.07
2023-04-29T23:32:52.963Z,10.85
2023-04-29T23:35:19.755Z,13.10
2023-04-29T23:37:46.485Z,15.10
2023-04-29T23:40:13.298Z,11.43
2023-04-29T23:42:39.979Z,10.68
2023-04-29T23:45:07.408Z,10.05
2023-04-29T23:47:34.113Z,9.80
2023-04-29T23:50:00.934Z,15.98
2023-04-29T23:52:27.639Z,9.57
2023-04-29T23:54:54.362Z,8.18
2023-04-29T23:57:21.114Z,9.30
2023-04-29T23:59:47.853Z,9.43
